Terminal Aerodrome Forecast
Issued by NWS

Home | Current Version | Previous Version | Text Only | Print | Product List | Glossary On
Versions: 1 2 3 4 5 6 7 8 9 10 11 12 13 14 15 16 17 18 19 20
000
FTUS46 KLOX 231120
TAFVNY
TAF
KVNY 231120Z 2312/2412 VRB03KT P6SM BKN025 OVC035
     FM231700 13006KT P6SM SCT025 BKN035
     FM232000 13008KT P6SM SCT040
     FM240300 VRB03KT P6SM SKC
     FM240900 VRB03KT P6SM OVC030=

USA.gov is the U.S. government's official web portal to all federal, state and local government web resources and services.